Flight Track Log - Related Links

Times and Time Zones

All times are in EDT time to prevent confusion due to time zone crossing. See the ASQ6127 flight status page for this flight to view local times or setup timezone preferences in your user account.

Time Position Orientation Groundspeed Altitude Reporting Facility
EDT Latitude Longitude Course Direction KTS MPH feet Rate Location/Type
Thu 12:25:00 PM 29.9525 -95.3350 90° East 200 230 800  Level Houston Center
Thu 12:26:13 PM 29.9067 -95.2706 129° Southeast 240 276 2,500 1,664 Climbing Houston Center
Thu 12:27:17 PM 29.8650 -95.2106 129° Southeast 247 284 4,600 2,095 Climbing Houston Center
Thu 12:28:00 PM 29.9834 -94.7759 90° East  Level FlightAware Approximate
Thu 12:28:19 PM 29.8278 -95.1361 120° Southeast 278 320 6,900  Level Houston Center
Thu 12:29:00 PM 29.9833 -94.6365 90° East  Level FlightAware Approximate
Thu 12:29:22 PM 29.8456 -95.0464 77° East 284 327 9,000  Level Houston Center
Thu 12:30:00 PM 29.9834 -94.4971 90° East  Level FlightAware Approximate
Thu 12:30:24 PM 29.8661 -94.9547 75° East 292 336 10,800  Level Houston Center
Thu 12:31:26 PM 29.9053 -94.8342 69° East 331 381 11,700 1,113 Climbing Houston Center
Thu 12:32:28 PM 29.9250 -94.7181 79° East 361 415 13,100 1,355 Climbing Houston Center
Thu 12:33:30 PM 29.9456 -94.5994 79° East 373 429 14,500 1,306 Climbing Houston Center
Thu 12:34:32 PM 29.9658 -94.4769 79° East 383 441 15,800 1,161 Climbing Houston Center
Thu 12:35:34 PM 29.9903 -94.3361 79° East 394 453 16,900 1,008 Climbing Houston Center
Thu 12:36:37 PM 30.0078 -94.2056 81° East 409 471 17,900 1,296 Climbing Houston Center
Thu 12:37:39 PM 30.0253 -94.0747 81° East 415 478 19,600 1,597 Climbing Houston Center
Thu 12:38:41 PM 30.0408 -93.9458 82° East 408 470 21,200 1,452 Climbing Houston Center
Thu 12:39:43 PM 30.0561 -93.8200 82° East 399 459 22,600 1,694 Climbing Houston Center
Thu 12:40:45 PM 30.0742 -93.6694 82° East 397 457 24,700 1,597 Climbing Houston Center
Thu 12:41:47 PM 30.0881 -93.5525 82° East 375 432 25,900 1,152 Climbing Houston Center
Thu 12:42:50 PM 30.1022 -93.4331 82° East 379 436 27,100 1,200 Climbing Houston Center
Thu 12:43:52 PM 30.1153 -93.3136 83° East 380 437 28,400 1,355 Climbing Houston Center
Thu 12:44:54 PM 30.1319 -93.1719 82° East 374 430 29,900 1,355 Climbing Houston Center
Thu 12:45:56 PM 30.1622 -93.0639 72° East 364 419 31,200 1,161 Climbing Houston Center
Thu 12:46:58 PM 30.2144 -92.9700 57° Northeast 352 405 32,300 871 Climbing Houston Center
Thu 12:48:00 PM 30.2667 -92.8739 58° Northeast 353 406 33,000 677 Climbing Houston Center
Thu 12:49:02 PM 30.3200 -92.7772 57° Northeast 358 412 33,700 720 Climbing Houston Center
Thu 12:50:05 PM 30.3833 -92.6600 58° Northeast 361 415 34,500 624 Climbing Houston Center
Thu 12:51:07 PM 30.4375 -92.5603 58° Northeast 366 421 35,000 242 Climbing Houston Center
Thu 12:52:09 PM 30.4953 -92.4533 58° Northeast 381 438 35,000  Level Houston Center
Thu 12:53:11 PM 30.5547 -92.3428 58° Northeast 402 463 35,000 387 Level Houston Center
Thu 12:54:13 PM 30.6164 -92.2289 58° Northeast 416 479 35,800 871 Climbing Houston Center
Thu 12:55:15 PM 30.6764 -92.1169 58° Northeast 412 474 36,800 576 Climbing Houston Center
Thu 12:56:18 PM 30.7475 -91.9861 58° Northeast 405 466 37,000 95 Climbing Houston Center
Thu 12:57:21 PM 30.7906 -91.8636 68° East 415 478 37,000  Level Houston Center
Thu 12:58:22 PM 30.8194 -91.7306 76° East 423 487 37,000  Level Houston Center
Thu 12:59:24 PM 30.8542 -91.5953 73° East 433 498 37,000  Level Houston Center
Thu 01:00:26 PM 30.8953 -91.4592 71° East 443 510 37,000  Level Houston Center
Thu 01:01:28 PM 30.9464 -91.2939 70° East 452 520 37,000  Level Houston Center
Thu 01:02:30 PM 31.0150 -91.1697 57° Northeast 462 532 37,000  Level Houston Center
Thu 01:03:33 PM 31.0869 -91.0475 55° Northeast 460 529 37,000  Level Houston Center
Thu 01:04:35 PM 31.1592 -90.9247 55° Northeast 458 527 37,000  Level Houston Center
Thu 01:05:37 PM 31.2333 -90.8011 55° Northeast 461 531 37,000  Level Houston Center
Thu 01:06:39 PM 31.3181 -90.6536 56° Northeast 457 526 37,000  Level Houston Center
Thu 01:07:41 PM 31.3908 -90.5317 55° Northeast 456 525 37,000  Level Houston Center
Thu 01:08:43 PM 31.4619 -90.4089 56° Northeast 455 524 37,000  Level Houston Center
Thu 01:09:46 PM 31.5339 -90.2872 55° Northeast 453 521 37,000  Level Houston Center
Thu 01:10:48 PM 31.6056 -90.1672 55° Northeast 449 517 37,000  Level Houston Center
Thu 01:11:50 PM 31.6875 -90.0556 49° Northeast 451 519 37,000  Level Houston Center
Thu 01:12:52 PM 31.7869 -89.9233 48° Northeast 450 518 37,000  Level Houston Center
Thu 01:13:54 PM 31.8586 -89.8253 49° Northeast 449 517 37,000  Level Houston Center
Thu 01:14:56 PM 31.9583 -89.6914 49° Northeast 444 511 37,000  Level Memphis Center
Thu 01:15:56 PM 32.0389 -89.5781 50° Northeast 444 511 37,000  Level Memphis Center
Thu 01:16:56 PM 32.1239 -89.4669 48° Northeast 444 511 37,000  Level Memphis Center
Thu 01:17:56 PM 32.2064 -89.3506 50° Northeast 449 517 37,000  Level Memphis Center
Thu 01:18:56 PM 32.2911 -89.2342 49° Northeast 455 524 37,000  Level Memphis Center
Thu 01:19:56 PM 32.3756 -89.1175 49° Northeast 460 529 37,000  Level Memphis Center
Thu 01:20:56 PM 32.4600 -89.0031 49° Northeast 460 529 37,000  Level Memphis Center
Thu 01:21:56 PM 32.5442 -88.8861 49° Northeast 460 529 37,000  Level Memphis Center
Thu 01:22:56 PM 32.6264 -88.7711 50° Northeast 460 529 37,000  Level Memphis Center
Thu 01:23:56 PM 32.7042 -88.6661 49° Northeast 466 536 37,000  Level Memphis Center
Thu 01:24:56 PM 32.7903 -88.5483 49° Northeast 466 536 37,000  Level Memphis Center
Thu 01:25:56 PM 32.8739 -88.4278 50° Northeast 466 536 37,000  Level Memphis Center
Thu 01:26:56 PM 32.9597 -88.3097 49° Northeast 466 536 37,000  Level Memphis Center
Thu 01:28:36 PM 33.0967 -88.1078 51° Northeast 483 556 37,000  Level Atlanta Center
Thu 01:29:36 PM 33.1819 -87.9900 49° Northeast 483 556 37,000  Level Atlanta Center
Thu 01:30:36 PM 33.2672 -87.8672 50° Northeast 483 556 37,000  Level Atlanta Center
Thu 01:31:36 PM 33.3503 -87.7467 50° Northeast 478 550 37,000  Level Atlanta Center
Thu 01:32:36 PM 33.4372 -87.6258 49° Northeast 478 550 37,000  Level Atlanta Center
Thu 01:33:36 PM 33.5222 -87.5022 50° Northeast 478 550 37,000  Level Atlanta Center
Thu 01:34:36 PM 33.6050 -87.3808 51° Northeast 478 550 37,000  Level Atlanta Center
Thu 01:35:36 PM 33.6894 -87.2594 50° Northeast 478 550 37,000  Level Atlanta Center
Thu 01:36:36 PM 33.7742 -87.1350 51° Northeast 478 550 37,000  Level Atlanta Center
Thu 01:37:36 PM 33.8564 -87.0131 51° Northeast 478 550 37,000  Level Atlanta Center
Thu 01:38:36 PM 33.9408 -86.8908 50° Northeast 478 550 37,000  Level Atlanta Center
Thu 01:39:36 PM 34.0250 -86.7683 50° Northeast 478 550 37,000  Level Atlanta Center
Thu 01:40:36 PM 34.1089 -86.6431 51° Northeast 478 550 37,000  Level Atlanta Center
Thu 01:41:36 PM 34.1950 -86.5175 50° Northeast 478 550 37,000  Level Atlanta Center
Thu 01:42:36 PM 34.2789 -86.3944 50° Northeast 478 550 37,000  Level Atlanta Center
Thu 01:43:36 PM 34.3647 -86.2658 51° Northeast 485 558 37,000  Level Atlanta Center
Thu 01:44:36 PM 34.4525 -86.1372 50° Northeast 485 558 37,000  Level Atlanta Center
Thu 01:45:36 PM 34.5361 -86.0106 51° Northeast 485 558 37,000  Level Atlanta Center
Thu 01:46:36 PM 34.6236 -85.8814 51° Northeast 485 558 37,000  Level Atlanta Center
Thu 01:47:36 PM 34.7047 -85.7594 51° Northeast 479 551 37,000  Level Atlanta Center
Thu 01:48:36 PM 34.7900 -85.6297 51° Northeast 485 558 37,000  Level Atlanta Center
Thu 01:49:36 PM 34.8811 -85.5047 48° Northeast 485 558 37,000  Level Atlanta Center
Thu 01:50:36 PM 34.9806 -85.3900 43° Northeast 485 558 37,000  Level Atlanta Center
Thu 01:51:36 PM 35.0800 -85.2722 44° Northeast 485 558 37,000  Level Atlanta Center
Thu 01:52:36 PM 35.1811 -85.1569 43° Northeast 485 558 37,000  Level Atlanta Center
Thu 01:53:36 PM 35.2803 -85.0411 44° Northeast 485 558 37,000  Level Atlanta Center
Thu 01:54:36 PM 35.3814 -84.9228 44° Northeast 490 564 37,000  Level Atlanta Center
Thu 01:55:36 PM 35.4803 -84.8064 44° Northeast 490 564 37,000  Level Atlanta Center
Thu 01:56:36 PM 35.5811 -84.6872 44° Northeast 490 564 37,000  Level Atlanta Center
Thu 01:57:36 PM 35.6839 -84.5681 43° Northeast 490 564 37,000  Level Atlanta Center
Thu 01:58:36 PM 35.7822 -84.4508 44° Northeast 490 564 37,000  Level Atlanta Center
Thu 01:59:36 PM 35.8828 -84.3361 43° Northeast 490 564 37,000  Level Atlanta Center
Thu 02:00:36 PM 35.9811 -84.2183 44° Northeast 490 564 37,000  Level Atlanta Center
Thu 02:01:36 PM 36.0792 -84.1003 44° Northeast 485 558 37,000  Level Atlanta Center
Thu 02:02:36 PM 36.1750 -83.9872 44° Northeast 485 558 37,000  Level Atlanta Center
Thu 02:02:56 PM 36.2086 -83.9439 46° Northeast 483 556 37,000  Level Indianapolis Center
Thu 02:03:57 PM 36.3047 -83.8281 44° Northeast 483 556 37,000  Level Indianapolis Center
Thu 02:04:59 PM 36.4011 -83.7117 44° Northeast 484 557 37,000  Level Indianapolis Center
Thu 02:06:01 PM 36.4972 -83.5953 44° Northeast 482 555 37,000  Level Indianapolis Center
Thu 02:07:02 PM 36.6056 -83.4675 43° Northeast 485 558 37,000  Level Indianapolis Center
Thu 02:08:04 PM 36.7164 -83.3789 33° Northeast 469 540 37,000  Level Indianapolis Center
Thu 02:09:05 PM 36.8342 -83.3033 27° Northeast 473 544 37,000  Level Indianapolis Center
Thu 02:10:07 PM 36.9519 -83.2275 27° Northeast 471 542 37,000  Level Indianapolis Center
Thu 02:11:09 PM 37.0703 -83.1514 27° Northeast 471 542 37,000  Level Indianapolis Center
Thu 02:12:10 PM 37.2081 -83.0622 27° Northeast 472 543 37,000  Level Indianapolis Center
Thu 02:13:12 PM 37.3247 -82.9839 28° Northeast 472 543 37,000  Level Indianapolis Center
Thu 02:14:13 PM 37.4414 -82.9081 27° Northeast 471 542 37,000  Level Indianapolis Center
Thu 02:15:15 PM 37.5578 -82.8297 28° Northeast 473 544 37,000  Level Indianapolis Center
Thu 02:16:17 PM 37.6750 -82.7531 27° Northeast 474 545 37,000  Level Indianapolis Center
Thu 02:17:18 PM 37.7908 -82.6756 28° Northeast 471 542 37,000  Level Indianapolis Center
Thu 02:18:20 PM 37.9081 -82.5967 28° Northeast 474 545 37,000  Level Indianapolis Center
Thu 02:19:22 PM 38.0244 -82.5189 28° Northeast 472 543 37,000 -390 Level Indianapolis Center
Thu 02:20:23 PM 38.1561 -82.4306 28° Northeast 473 544 36,200 -878 Descending Indianapolis Center
Thu 02:21:25 PM 38.2706 -82.3525 28° Northeast 469 540 35,200 -919 Descending Indianapolis Center
Thu 02:22:27 PM 38.3872 -82.2731 28° Northeast 471 542 34,300 -878 Descending Indianapolis Center
Thu 02:23:28 PM 38.5092 -82.1914 28° Northeast 487 560 33,400 -927 Descending Indianapolis Center
Thu 02:24:30 PM 38.6386 -82.1056 27° Northeast 512 589 32,400 -968 Descending Indianapolis Center
Thu 02:25:32 PM 38.7683 -82.0133 29° Northeast 523 602 31,400 -968 Descending Indianapolis Center
Thu 02:26:34 PM 38.8853 -81.9022 36° Northeast 517 595 30,400 -1,171 Descending Indianapolis Center
Thu 02:27:35 PM 39.0033 -81.7925 36° Northeast 516 594 29,000 -1,463 Descending Indianapolis Center
Thu 02:28:37 PM 39.1206 -81.6797 37° Northeast 520 598 27,400 -1,839 Descending Indianapolis Center
Thu 02:29:39 PM 39.2617 -81.5453 36° Northeast 523 602 25,200 -2,081 Descending Indianapolis Center
Thu 02:30:41 PM 39.3742 -81.4386 36° Northeast 504 580 23,100 -1,694 Descending Indianapolis Center
Thu 02:31:43 PM 39.4769 -81.3400 37° Northeast 464 534 21,700 -1,065 Descending Indianapolis Center
Thu 02:32:45 PM 39.5681 -81.2508 37° Northeast 417 480 20,900 -1,597 Descending Indianapolis Center
Thu 02:33:47 PM 39.6622 -81.1622 36° Northeast 415 478 18,400 -2,371 Descending Indianapolis Center
Thu 02:34:49 PM 39.7533 -81.0725 37° Northeast 411 473 16,000 -1,935 Descending Indianapolis Center
Thu 02:35:51 PM 39.8397 -80.9900 36° Northeast 386 444 14,400 -1,645 Descending Indianapolis Center
Thu 02:36:53 PM 39.9403 -80.8897 37° Northeast 378 435 12,600 -1,526 Descending Indianapolis Center
Thu 02:37:45 PM 40.0147 -80.8297 32° Northeast 371 427 11,500 -1,339 Descending Cleveland Center
Thu 02:38:45 PM 40.0983 -80.7567 34° Northeast 359 413 10,100 -750 Descending Cleveland Center
Thu 02:39:45 PM 40.1714 -80.6917 34° Northeast 337 388 10,000 -550 Descending Cleveland Center
Thu 02:40:45 PM 40.2422 -80.6319 33° Northeast 319 367 9,000 -1,300 Descending Cleveland Center
Thu 02:41:45 PM 40.3111 -80.5750 32° Northeast 302 348 7,400 -1,550 Descending Cleveland Center
Thu 02:42:45 PM 40.3819 -80.5286 27° Northeast 291 335 5,900 -1,400 Descending Cleveland Center
Thu 02:43:45 PM 40.4464 -80.4931 23° Northeast 264 304 4,600 -1,100 Descending Cleveland Center
Thu 02:44:45 PM 40.4903 -80.4492 37° Northeast 228 262 3,700 -900 Descending Cleveland Center

Login

Don't have an account? Register now (free) for customized features, flight alerts, and more!